Ashland, KY

5:26 AM EDT on May 25, 2015 (GMT -0400)
SouthAshland | | Change Station
CLOSE
Current Station
Personal Weather Station
Location: Ashland, KY
Elevation: 700 ft
Nearby Weather Stations

Elev 700 ft 38.45 °N, 82.63 °W | Updated 5 minutes ago

Partly Cloudy
Partly Cloudy
60.3 °F
Feels Like 60.3 °F
N
0.0
Wind Variable Wind from South
Gusts 0.0 mph

Today
High -- | Low -- °F
--% Chance of Precip.
Yesterday
High -- | Low -- °F
Precip. -- in
6:12 AM 8:43 PM
Waxing Crescent, 47% visible
Pressure 30.14 in
Visibility 10.0 miles
Clouds Clear
Dew Point 57 °F
Humidity 88%
Rainfall 0.00 in
Snow Depth Not available.
UV 0 out of 12
Pollen 8.00 out of 12
Air Quality Not available.
Flu Activity Sporadic
METAR KHTS 250851Z 00000KT 10SM CLR 17/11 A3016 RMK AO2 SLP207 T01720111 55001

More Conditions Fewer Conditions

Pressure 30.14 in
Visibility 10.0 miles
Clouds Clear
Dew Point 57 °F
Humidity 88%
Rainfall 0.00 in
Snow Depth Not available.
UV 0 out of 12
Pollen 8.00 out of 12
Air Quality Not available.
Flu Activity Sporadic
METAR KHTS 250851Z 00000KT 10SM CLR 17/11 A3016 RMK AO2 SLP207 T01720111 55001

More Conditions Fewer Conditions

10-Day Weather Forecast

Almanac

Astronomy

May. 25, 2015 Rise Set
Actual Time
Civil Twilight
Nautical Twilight
Astronomical Twilight
Moon
Length of Visible Light
Length of Day
Tomorrow will be .
, % of the Moon is Illuminated

Today's Extremes

State Highs State Lows

Community

WunderPhotos

Upload Photos

1,823,959 photos uploaded!

WunderBlogs® & News

Nearby

Air Quality

  Air Quality AQ Index Pollutant
Not available.

Snow Depth

Station Depth Elevation

Earthquake Activity

City Distance Mag. Time & Date
Minimum magnitude displayed is 2.5.

Coastal Water Temperatures

Place Temperature

Stations

Nearby Weather Stations

Station Location Temp. Windchill Dew Point Humidity Wind Precip. Elev Updated Type